»·PEaware :: N734AU KSBP-KBFL

N734AU :: KSBP-KBFL

FLIGHT INFORMATION

Flight Status: Arrived
Operator: Privately registered:
United States
More flights under this callsign
Pilot: Jerome A. (17490)
Aircraft: CESSNA T210 TURBO CENTURION
(T210)
More flights by this aircraft type
Origin: KSBP San Luis Co Regl
United States
Destination: KBFL Meadows
United States
More flights between these airports :: More routes between these airports
Route: +
File this flight plan on PilotEdge
Remarks:
Altitude:
(Current/Filed)
0ft
Speed:
(Current/Filed)
0kts
Departed: 13-May-18 10:07 AM
Arrived: 13-May-18 10:46 AM
Distance/Time
Traveled:
83nm/0:39
Distance/Time
To Go:
Arrived

Flight Plot

Page will automatically refresh every two minutes.


Map Options




Map Legend


Flown Route
Filed Route
Departure Airport
Arrival Airport
Navaid (VOR, NDB)
Fix

Horizontal Profiles

Position Reports

Time Latitude Longitude Heading Altitude Ground
Speed
13-May-18 10:01 35.239077 -120.641642 194 215ft 0kts
13-May-18 10:02 35.238454 -120.641204 131 215ft 24kts
13-May-18 10:03 35.234961 -120.634968 124 215ft 14kts
13-May-18 10:04 35.233331 -120.632394 186 215ft 0kts
13-May-18 10:05 35.233331 -120.632394 186 215ft 0kts
13-May-18 10:06 35.232951 -120.633295 300 215ft 5kts
13-May-18 10:07 35.244098 -120.652614 301 590ft 92kts
13-May-18 10:08 35.262937 -120.672284 8 1475ft 97kts
13-May-18 10:09 35.267185 -120.644717 111 2302ft 105kts
13-May-18 10:10 35.251769 -120.612423 119 3099ft 113kts
13-May-18 10:11 35.247624 -120.574157 84 3935ft 116kts
13-May-18 10:12 35.254274 -120.535837 77 4892ft 116kts
13-May-18 10:13 35.260982 -120.494752 70 5647ft 134kts
13-May-18 10:14 35.276054 -120.448355 63 5722ft 152kts
13-May-18 10:15 35.288170 -120.401409 83 5697ft 161kts
13-May-18 10:16 35.292915 -120.352540 80 5565ft 168kts
13-May-18 10:17 35.298558 -120.297023 83 5564ft 166kts
13-May-18 10:18 35.304115 -120.239949 85 5351ft 170kts
13-May-18 10:19 35.299392 -120.183238 99 5253ft 168kts
13-May-18 10:20 35.293755 -120.127995 92 5418ft 152kts
13-May-18 10:21 35.298024 -120.076197 74 5551ft 155kts
13-May-18 10:22 35.314229 -120.025879 62 5469ft 163kts
13-May-18 10:23 35.331825 -119.974428 80 5389ft 163kts
13-May-18 10:24 35.335750 -119.925447 82 5600ft 154kts
13-May-18 10:25 35.340298 -119.873931 85 5679ft 157kts
13-May-18 10:26 35.346222 -119.820369 79 5685ft 161kts
13-May-18 10:27 35.356203 -119.767159 76 5723ft 161kts
13-May-18 10:28 35.367234 -119.714237 73 5753ft 161kts
13-May-18 10:29 35.381243 -119.662052 70 5783ft 161kts
13-May-18 10:30 35.393754 -119.609536 85 4761ft 167kts
13-May-18 10:31 35.393572 -119.553774 94 3382ft 166kts
13-May-18 10:32 35.388162 -119.503123 97 2869ft 145kts
13-May-18 10:33 35.382229 -119.454936 102 2945ft 146kts
13-May-18 10:34 35.371117 -119.406823 104 2823ft 154kts
13-May-18 10:35 35.370201 -119.354255 87 2633ft 155kts
13-May-18 10:36 35.380256 -119.303585 68 2553ft 149kts
13-May-18 10:37 35.396280 -119.257708 65 2573ft 149kts
13-May-18 10:38 35.409510 -119.209421 88 2481ft 147kts
13-May-18 10:39 35.402224 -119.166700 114 2269ft 116kts
13-May-18 10:40 35.384514 -119.128516 122 1933ft 131kts
13-May-18 10:41 35.375214 -119.093106 103 1990ft 88kts
13-May-18 10:42 35.377661 -119.061108 67 1429ft 93kts
13-May-18 10:43 35.389744 -119.034609 51 1134ft 89kts
13-May-18 10:44 35.410212 -119.027312 328 905ft 97kts
13-May-18 10:45 35.428124 -119.049307 313 680ft 83kts
13-May-18 10:46 35.436384 -119.057324 98 511ft 0kts
13-May-18 10:47 35.435807 -119.056210 138 511ft 23kts
13-May-18 10:48 35.431668 -119.051226 134 511ft 11kts
13-May-18 10:49 35.429574 -119.048744 136 511ft 33kts
13-May-18 10:50 35.425695 -119.044089 108 511ft 1kts
13-May-18 10:51 35.425525 -119.044141 209 511ft 0kts
13-May-18 10:52 35.425525 -119.044141 209 511ft 0kts
13-May-18 10:53 35.425525 -119.044141 209 511ft 0kts
13-May-18 10:54 35.425525 -119.044141 209 511ft 0kts
13-May-18 10:55 35.425321 -119.044839 278 511ft 21kts
13-May-18 10:56 35.437458 -119.061273 311 764ft 106kts
13-May-18 10:57 35.459827 -119.067375 74 1888ft 105kts
13-May-18 10:58 35.440060 -119.037579 136 2623ft 132kts
13-May-18 10:59 35.411506 -119.007516 128 3377ft 142kts
13-May-18 11:00 35.395580 -118.963365 108 4196ft 142kts

Navigation Log

Ident Type
1. KSBP Airport
2. KBFL Airport